createdAt,value
2018-08-30T00:02:00.521Z,15.10
2018-08-30T00:04:30.039Z,15.00
2018-08-30T00:06:59.471Z,15.00
2018-08-30T00:09:28.879Z,15.10
2018-08-30T00:11:58.199Z,15.10
2018-08-30T00:14:27.592Z,15.20
2018-08-30T00:16:57.375Z,15.30
2018-08-30T00:19:26.903Z,15.40
2018-08-30T00:21:56.317Z,15.30
2018-08-30T00:24:25.838Z,15.40
2018-08-30T00:31:50.635Z,15.50
2018-08-30T00:34:20.173Z,15.50
2018-08-30T00:36:51.097Z,15.50
2018-08-30T00:39:20.531Z,15.50
2018-08-30T00:41:50.050Z,15.50
2018-08-30T00:44:19.577Z,15.50
2018-08-30T00:46:49.023Z,15.60
2018-08-30T00:49:18.390Z,15.60
2018-08-30T00:51:47.781Z,15.50
2018-08-30T00:54:17.215Z,15.50
2018-08-30T00:56:46.591Z,15.60
2018-08-30T00:59:16.160Z,15.50
2018-08-30T01:01:45.614Z,15.50
2018-08-30T01:04:15.103Z,15.60
2018-08-30T01:06:44.578Z,15.70
2018-08-30T01:09:14.105Z,15.70
2018-08-30T01:11:43.539Z,15.70
2018-08-30T01:14:12.992Z,15.70
2018-08-30T01:16:42.539Z,15.70
2018-08-30T01:19:12.109Z,15.70
2018-08-30T01:21:41.618Z,15.70
2018-08-30T01:24:10.985Z,15.70
2018-08-30T01:26:40.432Z,15.80
2018-08-30T01:29:09.798Z,15.80
2018-08-30T01:31:39.348Z,15.90
2018-08-30T01:34:11.414Z,15.90
2018-08-30T01:36:42.487Z,15.80
2018-08-30T01:39:12.303Z,15.80
2018-08-30T01:41:42.996Z,15.80
2018-08-30T01:44:13.361Z,15.80
2018-08-30T01:46:42.923Z,15.80
2018-08-30T01:49:12.508Z,15.90
2018-08-30T01:51:42.002Z,15.90
2018-08-30T01:54:11.638Z,16.00
2018-08-30T01:56:41.153Z,16.00
2018-08-30T01:59:10.644Z,16.10
2018-08-30T02:01:40.070Z,16.00
2018-08-30T02:04:09.537Z,16.10
2018-08-30T02:06:39.108Z,16.10
2018-08-30T02:09:08.689Z,16.10
2018-08-30T02:11:38.216Z,16.20
2018-08-30T02:14:07.694Z,16.20
2018-08-30T02:16:37.343Z,16.20
2018-08-30T02:19:06.963Z,16.30
2018-08-30T02:21:36.350Z,16.20
2018-08-30T02:24:05.753Z,16.20
2018-08-30T02:26:35.155Z,16.30
2018-08-30T02:29:04.656Z,16.30
2018-08-30T02:31:34.216Z,16.40
2018-08-30T02:34:03.768Z,16.40
2018-08-30T02:36:33.328Z,16.40
2018-08-30T02:39:03.075Z,16.40
2018-08-30T02:41:32.618Z,16.40
2018-08-30T02:44:02.275Z,16.40
2018-08-30T02:46:31.814Z,16.40
2018-08-30T02:49:01.891Z,16.50
2018-08-30T02:51:31.744Z,16.50
2018-08-30T02:54:01.799Z,16.50
2018-08-30T02:59:04.583Z,16.50
2018-08-30T03:01:34.080Z,16.60
2018-08-30T03:04:03.527Z,16.60
2018-08-30T03:06:33.039Z,16.60
2018-08-30T03:09:02.534Z,16.50
2018-08-30T03:11:31.995Z,16.40
2018-08-30T03:14:01.558Z,16.40
2018-08-30T03:16:30.992Z,16.50
2018-08-30T03:19:02.431Z,16.50
2018-08-30T03:21:32.014Z,16.50
2018-08-30T03:24:01.399Z,16.60
2018-08-30T03:26:30.791Z,16.60
2018-08-30T03:29:00.431Z,16.60
2018-08-30T03:31:29.889Z,16.60
2018-08-30T03:33:59.411Z,16.70
2018-08-30T03:36:28.970Z,16.70
2018-08-30T03:38:58.382Z,16.60
2018-08-30T03:41:27.946Z,16.60
2018-08-30T03:43:57.570Z,16.60
2018-08-30T03:46:27.131Z,16.70
2018-08-30T03:48:56.675Z,16.70
2018-08-30T03:51:26.197Z,16.70
2018-08-30T03:53:55.786Z,16.70
2018-08-30T03:56:25.304Z,16.70
2018-08-30T03:58:55.083Z,16.60
2018-08-30T04:01:24.494Z,16.60
2018-08-30T04:03:54.043Z,16.50
2018-08-30T04:06:23.518Z,16.50
2018-08-30T04:08:53.151Z,16.50
2018-08-30T04:11:23.037Z,16.50
2018-08-30T04:13:52.441Z,16.50
2018-08-30T04:16:23.398Z,16.50
2018-08-30T04:18:58.015Z,16.40
2018-08-30T04:21:27.579Z,16.40
2018-08-30T04:23:57.049Z,16.40
2018-08-30T04:26:26.648Z,16.40
2018-08-30T04:28:56.186Z,16.40
2018-08-30T04:31:25.869Z,16.30
2018-08-30T04:33:55.359Z,16.30
2018-08-30T04:36:25.406Z,16.30
2018-08-30T04:38:55.672Z,16.30
2018-08-30T04:41:25.195Z,16.30
2018-08-30T04:43:54.670Z,16.30
2018-08-30T04:46:24.238Z,16.30
2018-08-30T04:48:53.727Z,16.40
2018-08-30T04:51:23.330Z,16.40
2018-08-30T04:53:52.859Z,16.50
2018-08-30T04:56:23.207Z,16.50
2018-08-30T04:58:52.598Z,16.50
2018-08-30T05:01:23.306Z,16.40
2018-08-30T05:03:52.742Z,16.40
2018-08-30T05:06:23.228Z,16.40
2018-08-30T05:08:52.714Z,16.50
2018-08-30T05:11:23.051Z,16.60
2018-08-30T05:13:52.540Z,16.60
2018-08-30T05:16:22.130Z,16.60
2018-08-30T05:18:51.579Z,16.40
2018-08-30T05:21:20.975Z,16.40
2018-08-30T05:23:50.532Z,16.40
2018-08-30T05:26:20.031Z,16.40
2018-08-30T05:28:49.451Z,16.40
2018-08-30T05:31:18.946Z,16.40
2018-08-30T05:33:48.363Z,16.40
2018-08-30T05:36:17.946Z,16.40
2018-08-30T05:38:47.499Z,16.40
2018-08-30T05:41:17.091Z,16.50
2018-08-30T05:43:46.603Z,16.40
2018-08-30T05:46:15.978Z,16.40
2018-08-30T05:48:45.282Z,16.50
2018-08-30T05:51:14.599Z,16.40
2018-08-30T05:53:43.977Z,16.40
2018-08-30T05:56:13.495Z,16.40
2018-08-30T05:58:42.998Z,16.40
2018-08-30T06:01:12.440Z,16.50
2018-08-30T06:03:42.071Z,16.60
2018-08-30T06:06:11.416Z,16.60
2018-08-30T06:08:40.862Z,16.70
2018-08-30T06:11:10.397Z,16.70
2018-08-30T06:13:39.934Z,16.70
2018-08-30T06:16:09.403Z,16.70
2018-08-30T06:18:38.823Z,16.80
2018-08-30T06:21:08.382Z,16.80
2018-08-30T06:23:37.826Z,16.70
2018-08-30T06:26:07.375Z,16.80
2018-08-30T06:28:36.730Z,16.90
2018-08-30T06:31:06.127Z,16.90
2018-08-30T06:33:35.548Z,17.00
2018-08-30T06:36:04.940Z,17.10
2018-08-30T06:38:34.666Z,17.10
2018-08-30T06:41:04.027Z,17.10
2018-08-30T06:43:33.482Z,17.10
2018-08-30T06:46:03.066Z,17.00
2018-08-30T06:48:32.741Z,17.10
2018-08-30T06:51:02.161Z,17.20
2018-08-30T06:53:31.604Z,17.30
2018-08-30T06:56:01.267Z,17.30
2018-08-30T06:58:30.793Z,17.20
2018-08-30T07:01:06.642Z,17.20
2018-08-30T07:03:36.146Z,17.20
2018-08-30T07:06:05.595Z,17.20
2018-08-30T07:08:34.935Z,17.30
2018-08-30T07:11:04.319Z,17.30
2018-08-30T07:13:33.726Z,17.40
2018-08-30T07:16:03.463Z,17.40
2018-08-30T07:18:32.927Z,17.50
2018-08-30T07:21:02.318Z,17.60
2018-08-30T07:23:31.704Z,17.70
2018-08-30T07:26:01.174Z,17.70
2018-08-30T07:28:30.692Z,17.70
2018-08-30T07:31:00.205Z,17.80
2018-08-30T07:33:29.559Z,17.80
2018-08-30T07:35:59.175Z,17.80
2018-08-30T07:38:28.654Z,17.90
2018-08-30T07:40:58.123Z,17.80
2018-08-30T07:43:27.639Z,17.60
2018-08-30T07:45:56.995Z,17.60
2018-08-30T07:48:26.362Z,17.70
2018-08-30T07:50:55.784Z,17.70
2018-08-30T07:53:25.399Z,17.60
2018-08-30T07:55:54.743Z,17.60
2018-08-30T07:58:24.294Z,17.70
2018-08-30T08:00:53.834Z,17.80
2018-08-30T08:03:23.782Z,17.90
2018-08-30T08:05:53.427Z,18.00
2018-08-30T08:08:23.807Z,18.00
2018-08-30T08:10:53.382Z,18.00
2018-08-30T08:13:23.806Z,18.00
2018-08-30T08:15:53.314Z,18.10
2018-08-30T08:18:23.864Z,18.10
2018-08-30T08:20:53.267Z,18.20
2018-08-30T08:23:22.678Z,18.50
2018-08-30T08:25:52.054Z,18.60
2018-08-30T08:28:21.549Z,18.70
2018-08-30T08:30:50.955Z,18.90
2018-08-30T08:33:20.364Z,19.10
2018-08-30T08:35:49.906Z,19.10
2018-08-30T08:38:19.431Z,19.20
2018-08-30T08:40:48.782Z,19.30
2018-08-30T08:43:18.330Z,19.20
2018-08-30T08:45:47.666Z,19.10
2018-08-30T08:48:17.150Z,19.20
2018-08-30T08:50:46.685Z,19.30
2018-08-30T08:53:16.206Z,19.30
2018-08-30T08:55:45.724Z,19.30
2018-08-30T08:58:15.249Z,19.40
2018-08-30T09:00:44.802Z,19.50
2018-08-30T09:03:14.325Z,19.50
2018-08-30T09:05:43.851Z,19.60
2018-08-30T09:08:13.239Z,19.40
2018-08-30T09:10:42.543Z,19.40
2018-08-30T09:13:11.890Z,19.40
2018-08-30T09:15:41.243Z,19.40
2018-08-30T09:18:10.683Z,19.50
2018-08-30T09:20:40.030Z,19.50
2018-08-30T09:23:09.560Z,19.60
2018-08-30T09:25:38.971Z,19.70
2018-08-30T09:28:08.462Z,19.80
2018-08-30T09:30:38.039Z,19.90
2018-08-30T09:33:07.946Z,19.90
2018-08-30T09:35:37.370Z,20.00
2018-08-30T09:38:06.910Z,20.00
2018-08-30T09:40:36.379Z,20.00
2018-08-30T09:43:05.800Z,20.10
2018-08-30T09:45:35.356Z,20.00
2018-08-30T09:48:04.866Z,20.10
2018-08-30T09:50:34.219Z,20.20
2018-08-30T09:53:03.543Z,20.10
2018-08-30T09:55:33.001Z,20.20
2018-08-30T09:58:02.439Z,20.00
2018-08-30T10:00:37.177Z,20.10
2018-08-30T10:03:06.733Z,20.00
2018-08-30T10:05:36.223Z,20.10
2018-08-30T10:08:05.739Z,20.20
2018-08-30T10:10:35.090Z,20.10
2018-08-30T10:13:04.987Z,20.10
2018-08-30T10:15:34.518Z,20.20
2018-08-30T10:18:04.120Z,20.30
2018-08-30T10:20:33.640Z,20.30
2018-08-30T10:23:03.058Z,20.40
2018-08-30T10:25:32.603Z,20.50
2018-08-30T10:28:02.109Z,20.70
2018-08-30T10:30:31.487Z,20.70
2018-08-30T10:33:01.766Z,20.60
2018-08-30T10:35:31.085Z,20.60
2018-08-30T10:38:00.538Z,20.50
2018-08-30T10:40:30.059Z,20.50
2018-08-30T10:42:59.508Z,20.50
2018-08-30T10:45:29.062Z,20.50
2018-08-30T10:47:58.588Z,20.50
2018-08-30T10:50:28.074Z,20.60
2018-08-30T10:52:58.267Z,20.60
2018-08-30T10:55:27.667Z,20.60
2018-08-30T10:57:57.183Z,20.50
2018-08-30T11:00:26.782Z,20.50
2018-08-30T11:02:56.279Z,20.60
2018-08-30T11:05:25.908Z,20.60
2018-08-30T11:07:55.306Z,20.60
2018-08-30T11:10:24.614Z,20.60
2018-08-30T11:12:54.171Z,20.60
2018-08-30T11:15:24.430Z,20.70
2018-08-30T11:17:54.391Z,20.70
2018-08-30T11:20:24.571Z,20.80
2018-08-30T11:22:54.110Z,20.80
2018-08-30T11:25:24.539Z,20.90
2018-08-30T11:27:54.018Z,21.00
2018-08-30T11:30:24.321Z,21.10
2018-08-30T11:32:53.758Z,21.20
2018-08-30T11:35:24.558Z,21.30
2018-08-30T11:37:54.491Z,21.40
2018-08-30T11:40:24.615Z,21.40
2018-08-30T11:42:54.013Z,21.50
2018-08-30T11:45:23.402Z,21.60
2018-08-30T11:47:52.959Z,21.60
2018-08-30T11:50:22.322Z,21.60
2018-08-30T11:52:51.663Z,21.60
2018-08-30T11:55:21.007Z,21.70
2018-08-30T11:57:50.451Z,21.70
2018-08-30T12:00:19.990Z,21.80
2018-08-30T12:02:49.562Z,21.80
2018-08-30T12:05:19.118Z,21.90
2018-08-30T12:07:48.851Z,22.00
2018-08-30T12:10:18.377Z,22.00
2018-08-30T12:12:47.780Z,22.00
2018-08-30T12:15:17.238Z,22.00
2018-08-30T12:17:46.849Z,22.00
2018-08-30T12:20:16.303Z,22.10
2018-08-30T12:22:45.923Z,22.00
2018-08-30T12:25:15.354Z,22.10
2018-08-30T12:27:44.793Z,22.00
2018-08-30T12:30:14.219Z,22.00
2018-08-30T12:32:43.629Z,22.00
2018-08-30T12:35:13.164Z,22.00
2018-08-30T12:37:42.513Z,22.10
2018-08-30T12:40:12.210Z,22.00
2018-08-30T12:42:41.507Z,22.00
2018-08-30T12:45:11.093Z,22.10
2018-08-30T12:47:40.592Z,22.00
2018-08-30T12:50:10.133Z,22.10
2018-08-30T12:52:39.675Z,22.10
2018-08-30T12:55:09.376Z,22.10
2018-08-30T12:57:38.893Z,22.10
2018-08-30T13:00:08.529Z,22.10
2018-08-30T13:02:38.134Z,22.20
2018-08-30T13:05:07.542Z,22.20
2018-08-30T13:07:37.116Z,22.20
2018-08-30T13:10:06.477Z,22.20
2018-08-30T13:12:35.914Z,22.20
2018-08-30T13:15:06.213Z,22.30
2018-08-30T13:17:35.610Z,22.30
2018-08-30T13:20:05.313Z,22.30
2018-08-30T13:22:34.802Z,22.30
2018-08-30T13:25:04.283Z,22.40
2018-08-30T13:27:33.879Z,22.40
2018-08-30T13:30:03.656Z,22.40
2018-08-30T13:32:33.363Z,22.40
2018-08-30T13:35:02.743Z,22.40
2018-08-30T13:37:32.402Z,22.40
2018-08-30T13:40:01.977Z,22.50
2018-08-30T13:42:31.474Z,22.40
2018-08-30T13:45:01.204Z,22.40
2018-08-30T13:47:30.944Z,22.40
2018-08-30T13:50:00.149Z,22.40
2018-08-30T13:52:30.293Z,22.40
2018-08-30T13:54:59.604Z,22.30
2018-08-30T13:57:29.415Z,22.30
2018-08-30T13:59:58.793Z,22.20
2018-08-30T14:02:28.098Z,22.20
2018-08-30T14:04:57.412Z,22.20
2018-08-30T14:07:27.073Z,22.10
2018-08-30T14:09:56.679Z,22.10
2018-08-30T14:12:26.287Z,22.00
2018-08-30T14:14:55.870Z,21.90
2018-08-30T14:17:25.096Z,21.90
2018-08-30T14:19:54.713Z,21.90
2018-08-30T14:22:25.235Z,21.90
2018-08-30T14:24:54.723Z,21.80
2018-08-30T14:27:25.401Z,21.70
2018-08-30T14:29:54.821Z,21.70
2018-08-30T14:32:25.184Z,21.70
2018-08-30T14:34:54.499Z,21.70
2018-08-30T14:37:23.929Z,21.60
2018-08-30T14:39:53.518Z,21.50
2018-08-30T14:42:22.935Z,21.30
2018-08-30T14:44:52.593Z,21.10
2018-08-30T14:47:22.350Z,20.90
2018-08-30T14:49:52.283Z,20.70
2018-08-30T14:52:21.797Z,20.50
2018-08-30T14:54:51.429Z,20.40
2018-08-30T14:57:20.988Z,20.40
2018-08-30T14:59:50.610Z,20.30
2018-08-30T15:02:20.054Z,20.30
2018-08-30T15:04:49.800Z,20.30
2018-08-30T15:07:19.426Z,20.30
2018-08-30T15:09:48.803Z,20.30
2018-08-30T15:12:18.233Z,20.30
2018-08-30T15:14:47.923Z,20.30
2018-08-30T15:17:17.593Z,20.40
2018-08-30T15:19:47.309Z,20.40
2018-08-30T15:22:16.438Z,20.40
2018-08-30T15:24:45.938Z,20.40
2018-08-30T15:27:15.489Z,20.40
2018-08-30T15:29:45.057Z,20.40
2018-08-30T15:32:14.595Z,20.40
2018-08-30T15:34:44.330Z,20.40
2018-08-30T15:37:13.713Z,20.40
2018-08-30T15:39:43.382Z,20.40
2018-08-30T15:42:14.150Z,20.40
2018-08-30T15:44:43.731Z,20.40
2018-08-30T15:47:13.329Z,20.40
2018-08-30T15:49:43.273Z,20.40
2018-08-30T15:52:12.624Z,20.40
2018-08-30T15:54:42.198Z,20.40
2018-08-30T15:57:11.653Z,20.40
2018-08-30T16:04:37.092Z,20.30
2018-08-30T16:07:06.708Z,20.20
2018-08-30T16:09:36.241Z,20.20
2018-08-30T16:12:05.735Z,20.20
2018-08-30T16:14:35.104Z,20.20
2018-08-30T16:17:04.744Z,20.10
2018-08-30T16:19:34.215Z,20.10
2018-08-30T16:22:03.763Z,20.00
2018-08-30T16:24:33.325Z,20.00
2018-08-30T16:27:03.383Z,20.00
2018-08-30T16:29:32.936Z,19.90
2018-08-30T16:32:02.325Z,19.90
2018-08-30T16:34:31.737Z,19.80
2018-08-30T16:37:01.279Z,19.80
2018-08-30T16:39:30.674Z,19.80
2018-08-30T16:42:00.182Z,19.80
2018-08-30T16:44:29.795Z,19.70
2018-08-30T16:46:59.307Z,19.70
2018-08-30T16:49:28.807Z,19.70
2018-08-30T16:51:58.289Z,19.70
2018-08-30T16:54:27.822Z,19.60
2018-08-30T16:56:57.382Z,19.60
2018-08-30T16:59:27.133Z,19.50
2018-08-30T17:01:56.839Z,19.50
2018-08-30T17:04:26.408Z,19.50
2018-08-30T17:06:56.131Z,19.40
2018-08-30T17:09:25.698Z,19.40
2018-08-30T17:11:55.039Z,19.30
2018-08-30T17:14:24.537Z,19.30
2018-08-30T17:16:53.840Z,19.30
2018-08-30T17:19:29.002Z,19.20
2018-08-30T17:21:58.474Z,19.20
2018-08-30T17:24:27.982Z,19.20
2018-08-30T17:26:57.552Z,19.20
2018-08-30T17:29:26.978Z,19.20
2018-08-30T17:31:56.394Z,19.10
2018-08-30T17:39:21.734Z,19.00
2018-08-30T17:41:51.155Z,18.90
2018-08-30T17:44:20.694Z,18.80
2018-08-30T17:46:50.203Z,18.80
2018-08-30T17:49:19.579Z,18.80
2018-08-30T17:51:49.124Z,18.80
2018-08-30T17:54:18.396Z,18.80
2018-08-30T17:56:47.926Z,18.80
2018-08-30T17:59:17.417Z,18.80
2018-08-30T18:01:47.024Z,18.80
2018-08-30T18:04:16.362Z,18.80
2018-08-30T18:06:45.874Z,18.80
2018-08-30T18:09:15.286Z,18.80
2018-08-30T18:11:44.666Z,18.70
2018-08-30T18:14:14.219Z,18.80
2018-08-30T18:16:44.626Z,18.70
2018-08-30T18:19:14.120Z,18.60
2018-08-30T18:21:43.617Z,18.70
2018-08-30T18:24:13.111Z,18.70
2018-08-30T18:26:42.661Z,18.70
2018-08-30T18:29:12.022Z,18.70
2018-08-30T18:31:41.354Z,18.70
2018-08-30T18:34:10.918Z,18.70
2018-08-30T18:36:40.264Z,18.70
2018-08-30T18:39:11.099Z,18.70
2018-08-30T18:41:40.835Z,18.70
2018-08-30T18:44:10.594Z,18.60
2018-08-30T18:46:40.162Z,18.60
2018-08-30T18:49:09.658Z,18.60
2018-08-30T18:51:39.179Z,18.60
2018-08-30T18:54:08.707Z,18.50
2018-08-30T18:56:38.135Z,18.50
2018-08-30T18:59:07.646Z,18.50
2018-08-30T19:01:37.058Z,18.50
2018-08-30T19:04:06.714Z,18.40
2018-08-30T19:06:36.190Z,18.40
2018-08-30T19:09:08.357Z,18.40
2018-08-30T19:11:37.717Z,18.40
2018-08-30T19:14:07.268Z,18.40
2018-08-30T19:16:42.336Z,18.40
2018-08-30T19:19:15.895Z,18.40
2018-08-30T19:21:45.298Z,18.40
2018-08-30T19:24:20.267Z,18.40
2018-08-30T19:26:49.834Z,18.40
2018-08-30T19:31:37.570Z,18.40
2018-08-30T19:34:07.182Z,18.40
2018-08-30T19:36:36.654Z,18.40
2018-08-30T19:39:09.470Z,18.30
2018-08-30T19:41:38.947Z,18.20
2018-08-30T19:44:09.161Z,18.30
2018-08-30T19:46:38.619Z,18.30
2018-08-30T19:49:08.143Z,18.20
2018-08-30T19:51:37.682Z,18.20
2018-08-30T19:54:07.022Z,18.20
2018-08-30T19:56:36.515Z,18.20
2018-08-30T19:59:06.051Z,18.20
2018-08-30T20:01:36.338Z,18.20
2018-08-30T20:04:05.864Z,18.20
2018-08-30T20:06:35.403Z,18.30
2018-08-30T20:09:05.610Z,18.20
2018-08-30T20:11:35.092Z,18.20
2018-08-30T20:14:04.672Z,18.20
2018-08-30T20:16:34.139Z,18.20
2018-08-30T20:19:03.610Z,18.20
2018-08-30T20:21:33.059Z,18.20
2018-08-30T20:24:02.708Z,18.30
2018-08-30T20:26:32.222Z,18.30
2018-08-30T20:29:01.568Z,18.30
2018-08-30T20:31:30.966Z,18.30
2018-08-30T20:34:00.543Z,18.30
2018-08-30T20:36:29.931Z,18.20
2018-08-30T20:38:59.213Z,18.20
2018-08-30T20:41:28.538Z,18.20
2018-08-30T20:43:57.846Z,18.30
2018-08-30T20:46:27.150Z,18.30
2018-08-30T20:48:56.555Z,18.30
2018-08-30T20:51:26.166Z,18.20
2018-08-30T20:53:56.487Z,18.30
2018-08-30T20:56:26.253Z,18.30
2018-08-30T20:58:55.791Z,18.20
2018-08-30T21:01:26.167Z,18.30
2018-08-30T21:03:55.677Z,18.20
2018-08-30T21:06:26.136Z,18.30
2018-08-30T21:08:55.596Z,18.20
2018-08-30T21:11:24.986Z,18.20
2018-08-30T21:13:54.362Z,18.20
2018-08-30T21:16:23.816Z,18.20
2018-08-30T21:18:53.302Z,18.20
2018-08-30T21:21:22.662Z,18.20
2018-08-30T21:23:51.958Z,18.20
2018-08-30T21:26:21.461Z,18.20
2018-08-30T21:28:50.810Z,18.20
2018-08-30T21:31:20.227Z,18.20
2018-08-30T21:33:49.526Z,18.20
2018-08-30T21:36:19.034Z,18.20
2018-08-30T21:38:48.639Z,18.20
2018-08-30T21:41:18.013Z,18.20
2018-08-30T21:43:47.415Z,18.20
2018-08-30T21:46:16.858Z,18.20
2018-08-30T21:48:46.314Z,18.10
2018-08-30T21:51:15.823Z,18.10
2018-08-30T21:53:45.334Z,18.10
2018-08-30T21:56:14.797Z,18.10
2018-08-30T21:58:44.171Z,18.10
2018-08-30T22:01:13.581Z,18.10
2018-08-30T22:03:42.990Z,18.10
2018-08-30T22:06:12.459Z,18.10
2018-08-30T22:08:41.930Z,18.10
2018-08-30T22:11:11.431Z,18.10
2018-08-30T22:13:40.831Z,18.10
2018-08-30T22:16:10.358Z,18.10
2018-08-30T22:18:39.722Z,18.10
2018-08-30T22:21:09.107Z,18.00
2018-08-30T22:23:38.453Z,18.10
2018-08-30T22:26:07.987Z,18.00
2018-08-30T22:28:38.510Z,18.00
2018-08-30T22:31:07.896Z,18.00
2018-08-30T22:33:37.279Z,18.00
2018-08-30T22:36:06.736Z,18.00
2018-08-30T22:38:36.082Z,18.00
2018-08-30T22:41:05.623Z,18.00
2018-08-30T22:43:34.965Z,18.00
2018-08-30T22:46:04.288Z,18.00
2018-08-30T22:48:33.627Z,18.00
2018-08-30T22:51:03.051Z,18.00
2018-08-30T22:53:32.544Z,18.00
2018-08-30T22:56:02.078Z,18.00
2018-08-30T22:58:31.635Z,18.00
2018-08-30T23:01:01.200Z,17.90
2018-08-30T23:03:30.731Z,18.00
2018-08-30T23:06:00.114Z,18.00
2018-08-30T23:08:29.526Z,18.00
2018-08-30T23:10:59.925Z,17.90
2018-08-30T23:13:29.426Z,17.90
2018-08-30T23:15:58.933Z,17.90
2018-08-30T23:18:28.286Z,17.90
2018-08-30T23:20:57.586Z,17.90
2018-08-30T23:23:27.095Z,17.90
2018-08-30T23:25:56.375Z,17.90
2018-08-30T23:28:26.794Z,17.90
2018-08-30T23:30:56.271Z,17.90
2018-08-30T23:33:26.766Z,17.90
2018-08-30T23:35:56.254Z,17.90
2018-08-30T23:38:26.724Z,17.90
2018-08-30T23:40:56.290Z,17.90
2018-08-30T23:43:26.846Z,17.90
2018-08-30T23:45:56.354Z,17.80
2018-08-30T23:48:26.850Z,17.80
2018-08-30T23:50:56.171Z,17.80
2018-08-30T23:53:25.654Z,17.70
2018-08-30T23:55:55.030Z,17.70
2018-08-30T23:58:35.710Z,17.70
